Time;durP1;ratioP1;P1;durP2;ratioP2;P2;SDS_P1;SDS_P2;PMS_P1;PMS_P2;Temp;Humidity;BMP_temperature;BMP_pressure;BME280_temperature;BME280_humidity;BME280_pressure;Samples;Min_cycle;Max_cycle;Signal;HPM_P1;HPM_P2
2022/06/20 00:01:05;;;;;;;13.43;2.93;;;;;;;;;;6156162;23;20401;-88
2022/06/20 00:03:38;;;;;;;20.33;2.93;;;;;;;;;;6155958;23;20413;-87
2022/06/20 00:06:05;;;;;;;12.60;3.03;;;;;;;;;;6131762;23;20384;-87
2022/06/20 00:08:33;;;;;;;14.77;2.77;;;;;;;;;;6131716;23;20437;-87
2022/06/20 00:11:01;;;;;;;18.00;3.30;;;;;;;;;;6131370;23;20468;-87
2022/06/20 00:13:32;;;;;;;21.83;3.30;;;;;;;;;;6130895;23;20492;-87
2022/06/20 00:16:01;;;;;;;21.83;2.87;;;;;;;;;;6155687;23;20409;-86
2022/06/20 00:18:29;;;;;;;12.90;2.90;;;;;;;;;;6155717;23;20985;-87
2022/06/20 00:20:57;;;;;;;27.13;5.10;;;;;;;;;;6131215;23;20705;-86
2022/06/20 00:23:24;;;;;;;21.83;3.83;;;;;;;;;;6131436;23;20401;-86
2022/06/20 00:25:52;;;;;;;14.83;3.03;;;;;;;;;;6131227;23;20763;-86
2022/06/20 00:28:19;;;;;;;21.90;3.80;;;;;;;;;;6155286;23;20476;-87
2022/06/20 00:30:47;;;;;;;16.70;3.20;;;;;;;;;;6131547;23;20927;-86
2022/06/20 00:33:14;;;;;;;16.17;2.93;;;;;;;;;;6130939;23;20397;-87
2022/06/20 00:35:42;;;;;;;17.43;2.73;;;;;;;;;;6130788;23;20476;-86
2022/06/20 00:38:14;;;;;;;28.13;4.10;;;;;;;;;;6130615;23;20404;-85
2022/06/20 00:40:46;;;;;;;21.23;3.50;;;;;;;;;;6156549;23;20404;-86
2022/06/20 00:43:31;;;;;;;20.80;3.30;;;;;;;;;;6154965;23;20442;-85
2022/06/20 00:46:01;;;;;;;18.73;4.00;;;;;;;;;;6155070;23;20400;-86
2022/06/20 00:48:47;;;;;;;19.73;3.50;;;;;;;;;;6131486;23;20432;-86
2022/06/20 00:51:16;;;;;;;15.50;2.90;;;;;;;;;;6130231;23;20401;-88
2022/06/20 00:53:52;;;;;;;24.37;3.50;;;;;;;;;;6154665;23;20408;-86
2022/06/20 00:56:43;;;;;;;11.50;2.90;;;;;;;;;;6154844;23;20404;-85
2022/06/20 00:59:11;;;;;;;17.33;2.80;;;;;;;;;;6114447;23;20468;-87
2022/06/20 01:01:39;;;;;;;17.00;3.17;;;;;;;;;;6130789;23;20425;-86
2022/06/20 01:04:16;;;;;;;19.20;3.50;;;;;;;;;;6156346;23;20397;-86
2022/06/20 01:07:06;;;;;;;12.30;2.60;;;;;;;;;;6130501;23;20496;-86
2022/06/20 01:09:35;;;;;;;15.73;3.03;;;;;;;;;;6152164;23;20480;-86
2022/06/20 01:12:03;;;;;;;18.77;3.10;;;;;;;;;;6130837;23;20794;-86
2022/06/20 01:14:35;;;;;;;20.77;4.27;;;;;;;;;;6131136;23;20401;-86
2022/06/20 01:17:03;;;;;;;16.87;2.90;;;;;;;;;;6154547;23;20419;-86
2022/06/20 01:19:39;;;;;;;26.23;3.93;;;;;;;;;;6150641;23;20400;-86
2022/06/20 01:22:10;;;;;;;16.20;2.77;;;;;;;;;;6155476;23;20396;-86
2022/06/20 01:24:43;;;;;;;14.20;2.30;;;;;;;;;;6129847;23;20424;-86
2022/06/20 01:27:29;;;;;;;14.03;2.60;;;;;;;;;;6154732;23;20519;-86
2022/06/20 01:29:57;;;;;;;22.60;2.63;;;;;;;;;;6155999;23;20907;-87
2022/06/20 01:32:24;;;;;;;15.83;3.97;;;;;;;;;;6131826;23;20389;-86
2022/06/20 01:34:51;;;;;;;20.80;3.27;;;;;;;;;;6154578;23;20425;-86
2022/06/20 01:37:29;;;;;;;16.87;2.57;;;;;;;;;;6130729;23;20392;-85
2022/06/20 01:39:58;;;;;;;26.97;2.67;;;;;;;;;;6132933;23;20448;-84
2022/06/20 01:42:26;;;;;;;18.37;2.90;;;;;;;;;;6131242;23;20402;-85
2022/06/20 01:45:03;;;;;;;10.33;2.43;;;;;;;;;;6130422;23;20429;-88
2022/06/20 01:47:32;;;;;;;15.90;2.20;;;;;;;;;;6155378;23;20436;-88
2022/06/20 01:50:00;;;;;;;15.63;3.43;;;;;;;;;;6130795;23;20970;-88
2022/06/20 01:52:27;;;;;;;12.73;2.67;;;;;;;;;;6131187;23;20385;-88
2022/06/20 01:54:56;;;;;;;17.80;2.90;;;;;;;;;;6154475;23;20802;-88
2022/06/20 01:57:24;;;;;;;17.87;3.20;;;;;;;;;;6133104;23;20412;-88
2022/06/20 02:00:04;;;;;;;14.90;2.80;;;;;;;;;;6160041;23;20407;-87
2022/06/20 02:02:33;;;;;;;17.47;3.53;;;;;;;;;;6160373;23;20479;-88
2022/06/20 02:05:05;;;;;;;19.70;3.50;;;;;;;;;;6136379;23;20454;-88
2022/06/20 02:07:32;;;;;;;15.03;2.23;;;;;;;;;;6135812;23;20463;-88
2022/06/20 02:10:02;;;;;;;14.03;2.50;;;;;;;;;;6136844;23;20373;-88
2022/06/20 02:12:31;;;;;;;13.40;2.63;;;;;;;;;;6160594;23;20385;-86
2022/06/20 02:14:58;;;;;;;16.43;2.53;;;;;;;;;;6136133;23;20389;-88
2022/06/20 02:17:31;;;;;;;15.67;2.50;;;;;;;;;;6135930;23;20416;-88
2022/06/20 02:19:59;;;;;;;18.10;2.20;;;;;;;;;;6136169;23;20424;-89
2022/06/20 02:22:26;;;;;;;17.90;2.30;;;;;;;;;;6135430;23;20486;-88
2022/06/20 02:24:55;;;;;;;27.17;2.90;;;;;;;;;;6136658;23;20455;-88
2022/06/20 02:27:47;;;;;;;13.07;2.27;;;;;;;;;;6135918;23;20831;-88
2022/06/20 02:30:17;;;;;;;10.07;2.30;;;;;;;;;;6185635;23;20902;-88
2022/06/20 02:32:47;;;;;;;19.03;2.70;;;;;;;;;;6161140;23;20373;-87
2022/06/20 02:35:16;;;;;;;16.63;2.70;;;;;;;;;;6159877;23;20811;-88
2022/06/20 02:37:44;;;;;;;18.00;2.70;;;;;;;;;;6160432;23;20411;-88
2022/06/20 02:40:15;;;;;;;33.33;3.13;;;;;;;;;;6160022;23;20464;-88
2022/06/20 02:42:45;;;;;;;12.87;2.67;;;;;;;;;;6135758;23;20495;-88
2022/06/20 02:45:14;;;;;;;18.43;2.60;;;;;;;;;;6159954;23;20910;-87
2022/06/20 02:47:42;;;;;;;14.27;3.23;;;;;;;;;;6185644;23;21040;-88
2022/06/20 02:50:10;;;;;;;21.97;2.90;;;;;;;;;;6136074;23;20402;-88
2022/06/20 02:53:00;;;;;;;12.23;2.77;;;;;;;;;;6135133;23;20509;-87
2022/06/20 02:55:30;;;;;;;12.63;2.57;;;;;;;;;;6172291;23;20411;-88
2022/06/20 02:57:58;;;;;;;15.13;2.63;;;;;;;;;;6154904;23;20436;-88
2022/06/20 03:00:29;;;;;;;13.60;2.30;;;;;;;;;;6156472;23;20429;-88
2022/06/20 03:03:00;;;;;;;21.30;3.50;;;;;;;;;;6156510;23;20455;-88
2022/06/20 03:05:27;;;;;;;18.97;2.57;;;;;;;;;;6154918;23;20784;-88
2022/06/20 03:07:55;;;;;;;9.70;2.43;;;;;;;;;;6132176;23;20437;-88
2022/06/20 03:10:28;;;;;;;13.37;2.33;;;;;;;;;;6154695;23;20424;-88
2022/06/20 03:12:56;;;;;;;15.80;2.97;;;;;;;;;;6132485;23;20464;-88
2022/06/20 03:15:43;;;;;;;8.20;1.83;;;;;;;;;;6132977;23;20479;-87
2022/06/20 03:21:34;;;;;;;12.10;1.80;;;;;;;;;;6179834;23;20380;-88
2022/06/20 03:30:52;;;;;;;15.40;2.83;;;;;;;;;;6180253;23;20360;-88
2022/06/20 03:33:21;;;;;;;9.03;1.93;;;;;;;;;;6159613;23;20464;-87
2022/06/20 03:35:56;;;;;;;14.10;2.07;;;;;;;;;;6160948;23;20385;-89
2022/06/20 03:38:24;;;;;;;10.67;2.43;;;;;;;;;;6161100;23;20385;-87
2022/06/20 03:40:51;;;;;;;8.90;2.23;;;;;;;;;;6161036;23;20385;-87
2022/06/20 03:43:20;;;;;;;13.87;2.20;;;;;;;;;;6160596;23;20392;-86
2022/06/20 03:45:49;;;;;;;11.10;2.20;;;;;;;;;;6133431;23;20480;-88
2022/06/20 03:48:18;;;;;;;11.27;2.77;;;;;;;;;;6131319;23;20516;-89
2022/06/20 03:50:49;;;;;;;7.70;2.03;;;;;;;;;;6132798;23;20417;-88
2022/06/20 03:53:41;;;;;;;10.17;2.63;;;;;;;;;;6132973;23;20401;-87
2022/06/20 03:56:22;;;;;;;19.70;2.90;;;;;;;;;;6156648;23;20460;-88
2022/06/20 03:58:56;;;;;;;24.40;2.60;;;;;;;;;;6155855;23;20484;-88
2022/06/20 04:01:26;;;;;;;12.33;2.47;;;;;;;;;;6157044;23;20411;-88
2022/06/20 04:04:20;;;;;;;11.97;2.20;;;;;;;;;;6156304;23;20499;-89
2022/06/20 04:06:52;;;;;;;19.87;2.17;;;;;;;;;;6152030;23;20412;-88
2022/06/20 04:12:23;;;;;;;13.00;2.50;;;;;;;;;;6157576;23;20385;-89
2022/06/20 04:14:55;;;;;;;19.77;3.10;;;;;;;;;;6156496;23;20515;-89
2022/06/20 04:20:31;;;;;;;11.77;2.43;;;;;;;;;;6156491;23;20440;-88
2022/06/20 04:22:59;;;;;;;8.97;1.77;;;;;;;;;;6132043;23;20416;-88
2022/06/20 04:25:30;;;;;;;24.20;3.23;;;;;;;;;;6131808;23;20408;-89
2022/06/20 04:28:04;;;;;;;14.00;2.23;;;;;;;;;;6155801;23;20527;-89
2022/06/20 04:30:43;;;;;;;14.50;3.17;;;;;;;;;;6131637;23;20421;-88
2022/06/20 04:33:34;;;;;;;10.47;2.00;;;;;;;;;;6130918;23;20519;-90
2022/06/20 04:36:11;;;;;;;14.80;2.90;;;;;;;;;;6132885;23;20463;-88
2022/06/20 04:38:41;;;;;;;10.67;2.03;;;;;;;;;;6131438;23;20401;-89
2022/06/20 04:41:14;;;;;;;11.63;2.17;;;;;;;;;;6132407;23;20389;-88
2022/06/20 04:43:43;;;;;;;12.23;1.97;;;;;;;;;;6156356;23;20393;-89
2022/06/20 04:46:12;;;;;;;16.60;3.27;;;;;;;;;;6131551;23;21007;-88
2022/06/20 04:48:43;;;;;;;17.23;3.07;;;;;;;;;;6159472;23;20425;-88
2022/06/20 04:51:12;;;;;;;8.93;2.13;;;;;;;;;;6156251;23;20374;-87
2022/06/20 04:53:40;;;;;;;16.73;2.67;;;;;;;;;;6131424;23;20403;-88
2022/06/20 04:56:10;;;;;;;15.67;2.33;;;;;;;;;;6131435;23;20388;-87
2022/06/20 04:58:37;;;;;;;19.07;3.33;;;;;;;;;;6131461;23;20531;-87
2022/06/20 05:01:06;;;;;;;10.73;2.27;;;;;;;;;;6156190;23;20389;-87
2022/06/20 05:03:57;;;;;;;14.00;2.80;;;;;;;;;;6131514;23;20425;-87
2022/06/20 05:06:29;;;;;;;16.30;2.87;;;;;;;;;;6155710;23;20373;-87
2022/06/20 05:09:00;;;;;;;13.30;2.40;;;;;;;;;;6154862;23;20452;-87
2022/06/20 05:11:50;;;;;;;14.33;2.10;;;;;;;;;;6156056;23;20392;-84
2022/06/20 05:14:22;;;;;;;7.30;2.37;;;;;;;;;;6156058;23;20401;-85
2022/06/20 05:16:57;;;;;;;18.20;2.90;;;;;;;;;;6155449;23;20397;-86
2022/06/20 05:19:27;;;;;;;13.70;2.97;;;;;;;;;;6130304;23;20433;-86
2022/06/20 05:21:55;;;;;;;13.50;2.43;;;;;;;;;;6155815;23;20424;-86
2022/06/20 05:24:24;;;;;;;10.43;2.20;;;;;;;;;;6155187;23;20443;-85
2022/06/20 05:26:55;;;;;;;20.07;3.03;;;;;;;;;;6154689;23;20401;-86
2022/06/20 05:29:23;;;;;;;20.20;3.03;;;;;;;;;;6129675;23;20512;-87
2022/06/20 05:31:52;;;;;;;15.07;2.77;;;;;;;;;;6131368;23;20432;-86
2022/06/20 05:34:50;;;;;;;9.87;2.87;;;;;;;;;;6130635;23;20473;-86
2022/06/20 05:37:24;;;;;;;17.43;2.90;;;;;;;;;;6150061;23;20405;-87
2022/06/20 05:39:54;;;;;;;15.37;3.10;;;;;;;;;;6130206;23;20963;-84
2022/06/20 05:42:23;;;;;;;13.30;2.77;;;;;;;;;;6156042;23;20372;-87
2022/06/20 05:44:52;;;;;;;20.63;3.23;;;;;;;;;;6130748;23;20448;-89
2022/06/20 05:47:19;;;;;;;10.53;2.33;;;;;;;;;;6131407;23;20444;-88
2022/06/20 05:50:10;;;;;;;14.43;2.83;;;;;;;;;;6155046;23;20439;-88
2022/06/20 05:52:40;;;;;;;17.63;2.73;;;;;;;;;;6115002;23;20413;-89
2022/06/20 05:55:15;;;;;;;13.80;2.00;;;;;;;;;;6131484;23;20408;-88
2022/06/20 05:57:45;;;;;;;17.40;3.03;;;;;;;;;;6130776;23;20420;-89
2022/06/20 06:00:18;;;;;;;16.03;3.03;;;;;;;;;;6155295;23;20466;-88
2022/06/20 06:02:47;;;;;;;18.57;2.53;;;;;;;;;;6130343;23;20440;-86
2022/06/20 06:05:17;;;;;;;14.90;2.43;;;;;;;;;;6156862;23;20396;-85
2022/06/20 06:07:53;;;;;;;15.23;2.13;;;;;;;;;;6155156;23;20865;-87
2022/06/20 06:10:26;;;;;;;15.43;2.20;;;;;;;;;;6131851;23;20384;-87
2022/06/20 06:13:13;;;;;;;20.67;2.63;;;;;;;;;;6131506;23;20487;-90
2022/06/20 06:16:46;;;;;;;14.27;2.50;;;;;;;;;;6134726;23;20950;-90
2022/06/20 06:18:45;;;;;;;13.67;2.60;;;;;;;;;;6157513;23;20863;-92
2022/06/20 06:21:33;;;;;;;11.93;2.37;;;;;;;;;;6158178;23;20408;-91
2022/06/20 06:24:18;;;;;;;9.80;1.73;;;;;;;;;;6156987;23;20428;-91
2022/06/20 06:26:46;;;;;;;14.70;2.57;;;;;;;;;;6131661;23;20495;-89
2022/06/20 06:29:18;;;;;;;16.47;2.37;;;;;;;;;;6132001;23;20421;-88
2022/06/20 06:31:47;;;;;;;13.60;2.70;;;;;;;;;;6155513;23;20382;-89
2022/06/20 06:41:32;;;;;;;22.17;2.97;;;;;;;;;;6159369;23;20405;-89
2022/06/20 06:44:15;;;;;;;23.00;3.37;;;;;;;;;;6157836;23;20405;-90
2022/06/20 06:46:52;;;;;;;24.27;3.70;;;;;;;;;;6134516;23;20400;-90
2022/06/20 06:49:23;;;;;;;13.50;3.33;;;;;;;;;;6156802;23;20436;-91
2022/06/20 06:55:04;;;;;;;10.47;2.10;;;;;;;;;;6160009;23;20464;-90
2022/06/20 06:57:56;;;;;;;10.37;1.87;;;;;;;;;;6136222;23;20491;-91
2022/06/20 07:00:34;;;;;;;16.97;2.93;;;;;;;;;;6133541;23;20471;-90
2022/06/20 07:03:37;;;;;;;17.33;2.47;;;;;;;;;;6133755;23;20400;-91
2022/06/20 07:06:06;;;;;;;13.50;2.67;;;;;;;;;;6068759;23;20806;-90
2022/06/20 07:09:08;;;;;;;19.00;2.60;;;;;;;;;;6029117;23;20467;-90
2022/06/20 07:12:00;;;;;;;16.27;2.97;;;;;;;;;;6024584;23;20498;-91
2022/06/20 07:14:27;;;;;;;15.53;2.70;;;;;;;;;;6108420;23;20435;-91
2022/06/20 07:16:57;;;;;;;14.87;2.40;;;;;;;;;;6109389;23;20729;-89
2022/06/20 07:19:24;;;;;;;14.13;2.47;;;;;;;;;;6132595;23;20404;-89
2022/06/20 07:21:51;;;;;;;15.93;2.63;;;;;;;;;;6132527;23;20389;-88
2022/06/20 07:24:23;;;;;;;34.37;3.50;;;;;;;;;;6108719;23;20376;-89
2022/06/20 07:27:06;;;;;;;16.53;2.80;;;;;;;;;;6132264;23;20755;-89
2022/06/20 07:29:43;;;;;;;12.07;2.73;;;;;;;;;;6111353;23;20511;-87
2022/06/20 07:32:17;;;;;;;15.83;3.37;;;;;;;;;;6107944;23;20872;-88
2022/06/20 07:34:45;;;;;;;16.43;2.13;;;;;;;;;;6132562;23;20424;-91
2022/06/20 07:37:16;;;;;;;20.87;3.60;;;;;;;;;;6132551;23;20389;-88
2022/06/20 07:39:48;;;;;;;14.90;3.73;;;;;;;;;;6131796;23;20397;-90
2022/06/20 07:42:22;;;;;;;23.90;3.37;;;;;;;;;;6106257;23;20397;-88
2022/06/20 07:44:53;;;;;;;20.83;3.23;;;;;;;;;;6130632;23;20464;-87
2022/06/20 07:47:25;;;;;;;12.00;2.60;;;;;;;;;;6131389;23;20384;-87
2022/06/20 07:49:53;;;;;;;13.67;2.63;;;;;;;;;;6107910;23;20671;-88
2022/06/20 07:52:23;;;;;;;9.80;2.23;;;;;;;;;;6107884;23;20388;-87
2022/06/20 07:55:15;;;;;;;12.07;2.20;;;;;;;;;;6107405;23;20413;-88
2022/06/20 07:57:43;;;;;;;12.03;2.17;;;;;;;;;;6158276;23;20397;-88
2022/06/20 08:00:16;;;;;;;17.40;2.63;;;;;;;;;;6131715;23;20425;-88
2022/06/20 08:02:48;;;;;;;10.73;2.10;;;;;;;;;;6132197;23;20404;-88
2022/06/20 08:05:18;;;;;;;10.87;2.30;;;;;;;;;;6131366;23;20408;-88
2022/06/20 08:11:42;;;;;;;13.93;2.13;;;;;;;;;;6157714;23;20476;-87
2022/06/20 08:14:09;;;;;;;9.93;2.30;;;;;;;;;;6157238;23;20408;-87
2022/06/20 08:16:37;;;;;;;12.43;1.93;;;;;;;;;;6155408;23;20401;-88
2022/06/20 08:19:06;;;;;;;19.63;2.57;;;;;;;;;;6156070;23;20397;-88
2022/06/20 08:21:36;;;;;;;12.13;2.67;;;;;;;;;;6132830;23;20711;-88
2022/06/20 08:24:04;;;;;;;15.30;2.50;;;;;;;;;;6156429;23;20859;-88
2022/06/20 08:26:33;;;;;;;9.30;1.80;;;;;;;;;;6131733;23;20393;-88
2022/06/20 08:29:03;;;;;;;12.27;2.20;;;;;;;;;;6131620;23;20451;-88
2022/06/20 08:31:31;;;;;;;8.90;2.37;;;;;;;;;;6156499;23;20405;-88
2022/06/20 08:34:01;;;;;;;12.60;2.03;;;;;;;;;;6157728;23;20393;-87
2022/06/20 08:36:32;;;;;;;13.73;2.57;;;;;;;;;;6155540;23;20397;-88
2022/06/20 08:39:14;;;;;;;15.60;2.53;;;;;;;;;;6134215;23;20393;-88
2022/06/20 08:41:44;;;;;;;9.27;2.17;;;;;;;;;;6155628;23;20463;-88
2022/06/20 08:44:29;;;;;;;9.57;2.27;;;;;;;;;;6156639;23;20408;-88
2022/06/20 08:47:16;;;;;;;12.83;2.17;;;;;;;;;;6157262;23;20385;-87
2022/06/20 08:49:43;;;;;;;7.50;1.97;;;;;;;;;;6155441;23;20445;-88
2022/06/20 08:52:20;;;;;;;11.23;1.90;;;;;;;;;;6157548;23;20421;-88
2022/06/20 08:55:05;;;;;;;14.47;2.10;;;;;;;;;;6156724;23;20970;-87
2022/06/20 08:57:37;;;;;;;10.17;2.10;;;;;;;;;;6156399;23;20396;-88
2022/06/20 09:00:29;;;;;;;6.47;1.20;;;;;;;;;;6155832;23;20476;-87
2022/06/20 09:03:14;;;;;;;11.83;2.13;;;;;;;;;;6155730;23;20407;-88
2022/06/20 09:05:43;;;;;;;7.33;1.00;;;;;;;;;;6156214;23;20856;-87
2022/06/20 09:08:16;;;;;;;7.93;1.37;;;;;;;;;;6155070;23;20405;-88
2022/06/20 09:11:14;;;;;;;6.60;1.90;;;;;;;;;;6155953;23;20437;-88
2022/06/20 09:13:49;;;;;;;8.80;1.50;;;;;;;;;;6156373;23;20395;-88
2022/06/20 09:16:22;;;;;;;13.87;1.87;;;;;;;;;;6131084;23;20892;-88
2022/06/20 09:26:03;;;;;;;6.57;1.27;;;;;;;21.81;nan;101339.13;6157090;23;20392;-89
2022/06/20 09:28:45;;;;;;;5.03;1.40;;;;;;;22.04;nan;101391.88;6133874;23;20428;-88
2022/06/20 09:31:27;;;;;;;14.03;2.10;;;;;;;22.14;nan;101351.34;6154886;23;20463;-88
2022/06/20 09:34:16;;;;;;;8.27;1.63;;;;;;;22.28;nan;101361.03;6132142;23;20475;-88
2022/06/20 09:36:58;;;;;;;8.63;1.80;;;;;;;22.37;nan;101371.47;6156033;23;20476;-89
2022/06/20 09:39:56;;;;;;;10.53;1.57;;;;;;;22.33;nan;101370.28;6155323;23;20895;-88
2022/06/20 09:42:50;;;;;;;15.93;2.13;;;;;;;22.32;nan;101368.59;6156827;23;20465;-89
2022/06/20 09:45:20;;;;;;;6.57;1.10;;;;;;;22.38;nan;101383.47;6155142;23;20851;-88
2022/06/20 09:48:00;;;;;;;16.27;2.77;;;;;;;22.30;nan;101375.56;6155065;23;20455;-88
2022/06/20 09:50:46;;;;;;;2.10;0.90;;;;;;;22.20;nan;101381.81;6155070;23;20436;-88
2022/06/20 09:53:35;;;;;;;8.23;1.13;;;;;;;22.21;nan;101389.06;6129443;23;20466;-88
2022/06/20 09:56:37;;;;;;;4.87;1.07;;;;;;;22.18;nan;101384.00;6155532;23;20389;-88
2022/06/20 09:59:17;;;;;;;4.63;1.53;;;;;;;22.14;nan;101377.25;6134130;23;21062;-89
2022/06/20 10:02:06;;;;;;;5.43;1.00;;;;;;;22.34;nan;101387.84;6131032;23;20467;-88
2022/06/20 10:05:09;;;;;;;10.00;1.50;;;;;;;22.36;nan;101383.72;6134356;23;20408;-88
2022/06/20 10:07:41;;;;;;;7.20;1.30;;;;;;;22.41;nan;101391.31;6112962;23;20491;-88
2022/06/20 10:10:34;;;;;;;6.20;1.70;;;;;;;22.38;nan;101375.94;6130711;23;20447;-89
2022/06/20 10:13:29;;;;;;;5.33;1.53;;;;;;;22.48;nan;101386.41;6107590;23;20496;-88
2022/06/20 10:20:09;;;;;;;14.90;2.10;;;;;;;22.45;nan;101384.13;6158358;23;20416;-88
2022/06/20 10:23:18;;;;;;;5.67;1.17;;;;;;;22.45;nan;101389.69;6157405;23;20405;-88
2022/06/20 10:25:55;;;;;;;10.40;1.50;;;;;;;22.43;nan;101386.31;6136183;23;20408;-87
2022/06/20 10:28:42;;;;;;;3.23;0.97;;;;;;;22.56;nan;101393.44;6157034;23;20404;-88
2022/06/20 10:35:14;;;;;;;6.23;1.93;;;;;;;22.60;nan;101392.69;6158385;23;20357;-88
2022/06/20 10:37:57;;;;;;;8.43;1.57;;;;;;;22.74;nan;101413.50;6156683;23;20741;-88
2022/06/20 10:40:40;;;;;;;5.50;1.10;;;;;;;22.84;nan;101398.06;6157919;23;20408;-88
2022/06/20 10:43:28;;;;;;;12.47;1.60;;;;;;;22.96;nan;101412.69;6156019;23;20412;-88
2022/06/20 10:46:18;;;;;;;8.73;1.20;;;;;;;23.16;nan;101410.16;6135996;23;20507;-88
2022/06/20 10:48:52;;;;;;;13.10;2.63;;;;;;;23.16;nan;101407.38;6117993;23;20412;-88
2022/06/20 10:51:42;;;;;;;7.60;2.20;;;;;;;23.28;nan;101424.81;6156668;23;20515;-88
2022/06/20 10:54:57;;;;;;;14.03;2.07;;;;;;;23.36;nan;101413.16;5992682;23;20927;-88
2022/06/20 10:57:51;;;;;;;10.03;1.97;;;;;;;23.34;nan;101398.63;6016073;23;20548;-88
2022/06/20 11:00:22;;;;;;;9.93;2.20;;;;;;;23.40;nan;101378.06;6016231;23;20494;-88
2022/06/20 11:03:07;;;;;;;6.93;1.53;;;;;;;23.64;nan;101386.13;6021244;23;20858;-88
2022/06/20 11:05:58;;;;;;;15.77;1.53;;;;;;;23.71;nan;101386.75;6021158;23;20474;-88
2022/06/20 11:08:31;;;;;;;10.63;2.13;;;;;;;23.67;nan;101393.97;6020830;23;20418;-88
2022/06/20 11:11:13;;;;;;;9.70;2.13;;;;;;;23.72;nan;101394.00;6044714;23;20514;-87
2022/06/20 11:14:01;;;;;;;12.17;3.10;;;;;;;23.69;nan;101395.38;6108676;23;20409;-88
2022/06/20 11:16:35;;;;;;;10.97;2.33;;;;;;;23.58;nan;101387.19;6110180;23;20409;-88
2022/06/20 11:19:51;;;;;;;11.27;2.13;;;;;;;23.77;nan;101396.84;6131885;23;20409;-88
2022/06/20 11:22:25;;;;;;;7.10;2.00;;;;;;;23.79;nan;101383.47;6119668;23;20499;-88
2022/06/20 11:25:28;;;;;;;5.07;1.67;;;;;;;23.85;nan;101399.19;5993248;23;20423;-89
2022/06/20 11:28:22;;;;;;;13.37;2.23;;;;;;;23.80;nan;101395.50;5926546;24;21007;-88
2022/06/20 11:31:05;;;;;;;9.33;1.80;;;;;;;23.98;nan;101376.38;5904697;24;20455;-88
2022/06/20 11:34:04;;;;;;;10.50;2.40;;;;;;;24.25;nan;101376.31;5882980;24;20404;-88
2022/06/20 11:36:40;;;;;;;12.83;2.13;;;;;;;24.34;nan;101383.06;5901298;24;20468;-88
2022/06/20 11:39:34;;;;;;;12.23;2.60;;;;;;;24.50;nan;101385.97;5904555;24;20936;-89
2022/06/20 11:42:31;;;;;;;12.23;2.13;;;;;;;24.65;nan;101392.47;5911689;23;20427;-88
2022/06/20 11:45:37;;;;;;;12.60;2.50;;;;;;;24.52;nan;101404.16;6015644;23;20487;-88
2022/06/20 11:48:16;;;;;;;11.20;2.10;;;;;;;24.28;nan;101394.47;6038512;23;20480;-89
2022/06/20 11:50:54;;;;;;;6.83;1.40;;;;;;;24.19;nan;101388.53;6038728;23;20448;-89
2022/06/20 11:54:16;;;;;;;12.80;2.50;;;;;;;24.22;nan;101371.25;6015575;23;20390;-89
2022/06/20 11:56:57;;;;;;;9.83;1.90;;;;;;;24.46;nan;101388.44;6015433;23;20903;-88
2022/06/20 11:59:55;;;;;;;10.33;2.10;;;;;;;24.49;nan;101382.31;6057409;23;20450;-89
2022/06/20 12:03:05;;;;;;;8.47;1.77;;;;;;;24.57;nan;101380.97;6035711;23;20412;-88
2022/06/20 12:05:45;;;;;;;10.70;2.40;;;;;;;24.56;nan;101391.31;6096025;23;20497;-88
2022/06/20 12:08:30;;;;;;;10.10;2.13;;;;;;;24.75;nan;101392.53;6072663;23;20494;-88
2022/06/20 12:11:21;;;;;;;12.83;3.03;;;;;;;24.95;nan;101386.22;6096273;23;20833;-89
2022/06/20 12:14:19;;;;;;;13.67;2.60;;;;;;;24.89;nan;101380.84;6026013;23;20486;-88
2022/06/20 12:17:14;;;;;;;11.77;2.27;;;;;;;24.81;nan;101395.34;6088848;23;20901;-89
2022/06/20 12:23:50;;;;;;;11.30;2.00;;;;;;;24.89;nan;101362.09;6016630;23;20402;-88
2022/06/20 12:26:31;;;;;;;8.43;1.70;;;;;;;24.91;nan;101382.25;6095768;23;20789;-87
2022/06/20 12:29:00;;;;;;;8.63;2.00;;;;;;;24.85;nan;101399.25;6074353;23;20399;-89
2022/06/20 12:31:36;;;;;;;8.43;1.67;;;;;;;24.63;nan;101383.50;6048923;23;20775;-89
2022/06/20 12:34:16;;;;;;;8.43;1.80;;;;;;;24.66;nan;101370.94;6024960;23;20940;-89
2022/06/20 12:36:54;;;;;;;9.10;1.53;;;;;;;24.73;nan;101366.78;6072518;23;20411;-89
2022/06/20 12:39:25;;;;;;;11.73;2.20;;;;;;;24.76;nan;101366.25;6085877;23;20491;-89
2022/06/20 12:42:23;;;;;;;9.27;1.77;;;;;;;24.66;nan;101376.53;6136560;23;20736;-89
2022/06/20 12:45:09;;;;;;;6.40;1.70;;;;;;;24.89;nan;101364.91;6142256;23;20471;-88
2022/06/20 12:47:47;;;;;;;7.77;1.50;;;;;;;25.09;nan;101369.75;6160439;23;20419;-88
2022/06/20 12:50:35;;;;;;;8.47;2.10;;;;;;;25.13;nan;101354.94;6136618;23;20443;-89
2022/06/20 12:53:32;;;;;;;9.53;1.73;;;;;;;25.29;nan;101369.81;6186885;23;20403;-89
2022/06/20 12:56:07;;;;;;;5.83;1.23;;;;;;;25.52;nan;101370.41;6160829;23;20380;-89
2022/06/20 12:58:35;;;;;;;9.30;1.47;;;;;;;25.56;nan;101360.34;6160195;23;20474;-89
2022/06/20 13:01:10;;;;;;;11.00;1.40;;;;;;;25.61;nan;101377.94;6159946;23;20485;-89
2022/06/20 13:03:49;;;;;;;10.07;1.30;;;;;;;25.55;nan;101395.03;6136326;23;20917;-89
2022/06/20 13:06:33;;;;;;;6.57;1.50;;;;;;;25.29;nan;101367.00;6185902;23;20412;-89
2022/06/20 13:09:28;;;;;;;8.63;1.73;;;;;;;25.21;nan;101353.53;6136790;23;20407;-89
2022/06/20 13:12:10;;;;;;;5.03;1.00;;;;;;;25.38;nan;101351.34;6160435;23;20884;-89
2022/06/20 13:14:54;;;;;;;7.87;2.10;;;;;;;25.35;nan;101360.31;6162335;23;20438;-89
2022/06/20 13:17:39;;;;;;;9.67;1.83;;;;;;;25.32;nan;101363.66;6160199;23;20412;-89
2022/06/20 13:20:25;;;;;;;7.67;1.93;;;;;;;25.35;nan;101365.91;6136152;23;20851;-89
2022/06/20 13:23:15;;;;;;;8.60;1.40;;;;;;;25.40;nan;101371.47;6185916;23;20412;-89
2022/06/20 13:26:02;;;;;;;8.10;1.63;;;;;;;25.52;nan;101362.00;6114010;23;20486;-89
2022/06/20 13:28:37;;;;;;;10.70;1.50;;;;;;;25.34;nan;101367.03;6159996;23;20763;-89
2022/06/20 13:31:25;;;;;;;10.80;1.67;;;;;;;25.34;nan;101367.03;6160645;23;20440;-89
2022/06/20 13:33:53;;;;;;;5.33;1.50;;;;;;;25.38;nan;101348.56;6137553;23;20408;-89
2022/06/20 13:36:41;;;;;;;8.50;1.20;;;;;;;25.61;nan;101365.91;6160451;23;20411;-89
2022/06/20 13:39:16;;;;;;;6.80;1.37;;;;;;;25.83;nan;101355.31;6136230;23;20447;-89
2022/06/20 13:42:21;;;;;;;11.03;1.53;;;;;;;25.81;nan;101338.78;6159447;23;20414;-89
2022/06/20 13:44:59;;;;;;;13.20;1.50;;;;;;;25.78;nan;101352.53;6160681;23;20893;-89
2022/06/20 13:47:39;;;;;;;3.33;0.90;;;;;;;25.72;nan;101348.03;6159954;23;20898;-89
2022/06/20 13:50:17;;;;;;;10.87;1.73;;;;;;;25.70;nan;101383.88;6112402;23;20514;-88
2022/06/20 13:53:16;;;;;;;6.00;1.10;;;;;;;25.83;nan;101343.25;6159624;23;20419;-89
2022/06/20 13:55:50;;;;;;;5.80;1.30;;;;;;;25.87;nan;101336.81;6160246;23;20959;-89
2022/06/20 13:59:04;;;;;;;9.83;1.03;;;;;;;25.90;nan;101339.06;6186084;23;20427;-88
2022/06/20 14:01:38;;;;;;;10.27;1.80;;;;;;;25.82;nan;101331.22;6184732;23;20430;-89
2022/06/20 14:04:10;;;;;;;7.10;1.43;;;;;;;25.70;nan;101325.06;6160076;23;20415;-89
2022/06/20 14:07:10;;;;;;;7.37;1.50;;;;;;;25.92;nan;101342.44;6159736;23;20407;-89
2022/06/20 14:09:48;;;;;;;3.50;0.77;;;;;;;25.68;nan;101349.72;6155998;23;20412;-89
2022/06/20 14:12:48;;;;;;;3.90;0.97;;;;;;;25.28;nan;101342.94;6160379;23;20411;-89
2022/06/20 14:15:33;;;;;;;7.33;1.10;;;;;;;25.24;nan;101332.56;6119649;23;20423;-89
2022/06/20 14:18:13;;;;;;;6.93;1.47;;;;;;;25.39;nan;101330.66;6137482;23;20795;-89
2022/06/20 14:20:59;;;;;;;4.10;0.80;;;;;;;25.64;nan;101332.63;6136049;23;20404;-89
2022/06/20 14:23:27;;;;;;;6.23;1.00;;;;;;;25.79;nan;101334.59;6112825;23;20408;-89
2022/06/20 14:25:56;;;;;;;7.80;1.50;;;;;;;25.90;nan;101350.28;6135989;23;20408;-89
2022/06/20 14:28:32;;;;;;;4.13;0.63;;;;;;;26.11;nan;101342.69;6111390;23;20411;-88
2022/06/20 14:31:02;;;;;;;6.73;1.03;;;;;;;26.01;nan;101325.88;6185998;23;20813;-88
2022/06/20 14:33:49;;;;;;;6.50;0.90;;;;;;;25.87;nan;101331.22;6185378;23;20411;-89
2022/06/20 14:36:36;;;;;;;11.30;1.53;;;;;;;25.78;nan;101332.94;6132874;23;20492;-88
2022/06/20 14:42:58;;;;;;;7.60;1.03;;;;;;;26.14;nan;101309.34;6186581;23;20360;-87
2022/06/20 14:45:32;;;;;;;5.50;0.97;;;;;;;26.06;nan;101307.09;6162869;23;20403;-89
2022/06/20 14:48:35;;;;;;;6.77;1.10;;;;;;;25.91;nan;101314.69;6115236;23;20845;-88
2022/06/20 14:55:22;;;;;;;6.10;1.33;;;;;;;25.28;nan;101328.94;6189460;23;20375;-88
2022/06/20 14:58:02;;;;;;;7.67;1.47;;;;;;;25.10;nan;101315.47;6188392;23;20467;-90
2022/06/20 15:00:35;;;;;;;8.70;1.40;;;;;;;25.20;nan;101304.31;6186418;23;20709;-89
2022/06/20 15:03:24;;;;;;;6.30;1.23;;;;;;;25.43;nan;101314.94;6139973;23;20486;-89
2022/06/20 15:05:54;;;;;;;10.23;1.20;;;;;;;25.42;nan;101321.66;6189137;23;20547;-89
2022/06/20 15:09:13;;;;;;;8.00;1.20;;;;;;;25.04;nan;101324.97;6139282;23;20418;-89
2022/06/20 15:11:52;;;;;;;9.10;1.47;;;;;;;24.96;nan;101323.56;6040539;23;20444;-89
2022/06/20 15:14:29;;;;;;;5.70;1.07;;;;;;;24.82;nan;101296.38;6018456;23;20408;-88